Alcobendas, Spain
Current Conditions -  °F | °C
As of 2:30 PM on Thursday 30 Oct 2014 (Local Time) from LEMD Reporting Station
Clear Clear  
Wind Chill: 25°   Ceiling: Unl
Heat Index: 26°   Visibility: 6mi
Dew Point:   Wind: 1mph
Humidity: 34%   Direction: 210°SSW
Pressure: 30.18"   Gusts: NA
Location:  40.55°N, 3.64°W
Report Text: LEMD 301330Z 21001KT CAVOK 25/08 Q1022 NOSIG
Loading
Personal Weather Stations






























Interactive Weather Map
Tropical Storm Tracking
New forecast layout! Learn more

10-Day Weather Forecast

Advertisements
Track Severe Weather on mobile